Aviation Digital Data Service (ADDS)

Output produced by TAFs form (2230 UTC 22 August 2017)
found at http://www.aviationweather.gov/adds/tafs/
 
METAR text: KFAT 222153Z 34004KT 9SM FEW090 34/12 A2994 RMK AO2 SLP135 CU BLDUP OMTNS HZ FU DSNT N-E-SE T03390122
Conditions at: KFAT (FRESNO , CA, US) observed 2153 UTC 22 August 2017
Temperature: 33.9°C (93°F)
Dewpoint: 12.2°C (54°F) [RH = 27%]
Pressure (altimeter): 29.94 inches Hg (1014.0 mb)
[Sea-level pressure: 1013.5 mb]
Winds: from the NNW (340 degrees) at 5 MPH (4 knots; 2.1 m/s)
Visibility: 9 miles (14 km)
Ceiling: at least 12,000 feet AGL
Clouds: few clouds at 9000 feet AGL
Weather: no significant weather observed at this time

Forecast for: KFAT (FRESNO , CA, US)
Text: KFAT 221720Z 2218/2318 30006KT P6SM SCT150
Forecast period: 1800 UTC 22 August 2017 to 1800 UTC 23 August 2017
Forecast type: FROM: standard forecast or significant change
Winds: from the WNW (300 degrees) at 7 MPH (6 knots; 3.1 m/s)
Visibility: 6 or more miles (10+ km)
Clouds: scattered clouds at 15000 feet AGL
Weather: no significant weather forecast for this period